History Records
Tamil Nadu Air Quality Monitoring System
Filter Historical AQI Data
Stored Records
| ID | City | AQI | PM2.5 | PM10 | Temperature | Humidity | Date | Time |
|---|---|---|---|---|---|---|---|---|
| 257 | Bengaluru | 128 | 128.00 | 78.00 | 33.95 | 23.50 | 2026-04-25 | 13:40:51 |
| 256 | Chennai | 45 | 45.00 | 32.00 | 25.59 | 74.93 | 2026-04-13 | 10:33:02 |
| 255 | Salem | 13 | 13.00 | 9.40 | 99.00 | 2026-04-13 | 10:19:03 | |
| 254 | Dindigul | 25 | 25.00 | 28.00 | 76.00 | 2026-04-13 | 10:19:00 | |
| 253 | delhi | 190 | 190.00 | 151.00 | 27.97 | 36.00 | 2026-04-13 | 10:19:00 |
| 252 | Coimbatore | 80 | 80.00 | 55.00 | 31.00 | 47.29 | 2026-04-13 | 10:18:59 |
| 251 | Chennai | 45 | 45.00 | 32.00 | 25.59 | 74.93 | 2026-04-13 | 10:18:59 |
| 250 | Bengaluru | 124 | 124.00 | 76.00 | 30.90 | 42.00 | 2026-04-13 | 10:18:58 |
| 249 | Salem | 11 | 11.00 | 10.00 | 99.00 | 2026-04-13 | 09:43:00 | |
| 248 | Dindigul | 25 | 25.00 | 28.00 | 76.00 | 2026-04-13 | 09:42:58 | |
| 247 | delhi | 190 | 190.00 | 146.00 | 27.60 | 39.35 | 2026-04-13 | 09:42:57 |
| 246 | Coimbatore | 98 | 98.00 | 53.00 | 31.00 | 50.91 | 2026-04-13 | 09:42:57 |
| 245 | Chennai | 40 | 40.00 | 30.00 | 25.65 | 74.24 | 2026-04-13 | 09:42:56 |
| 244 | Bengaluru | 119 | 119.00 | 76.00 | 29.85 | 47.50 | 2026-04-13 | 09:42:56 |
| 243 | Chennai | 40 | 40.00 | 30.00 | 25.99 | 78.09 | 2026-04-13 | 09:39:15 |
| 242 | Chennai | 44 | 44.00 | 31.00 | 26.04 | 79.07 | 2026-04-13 | 09:16:48 |
| 241 | Salem | 28 | 28.00 | 9.00 | 99.00 | 2026-04-12 | 20:01:51 | |
| 240 | Salem | 28 | 28.00 | 9.00 | 99.00 | 2026-04-12 | 20:01:51 | |
| 239 | Salem | 28 | 28.00 | 9.00 | 99.00 | 2026-04-12 | 20:01:50 | |
| 238 | Dindigul | 25 | 25.00 | 28.00 | 76.00 | 2026-04-12 | 20:01:48 | |
| 237 | Dindigul | 25 | 25.00 | 28.00 | 76.00 | 2026-04-12 | 20:01:48 | |
| 236 | Dindigul | 25 | 25.00 | 28.00 | 76.00 | 2026-04-12 | 20:01:48 | |
| 235 | delhi | 56 | 30.00 | 56.00 | 27.07 | 32.12 | 2026-04-12 | 20:01:48 |
| 234 | delhi | 56 | 30.00 | 56.00 | 27.07 | 32.12 | 2026-04-12 | 20:01:47 |
| 233 | delhi | 56 | 30.00 | 56.00 | 27.07 | 32.12 | 2026-04-12 | 20:01:47 |
| 232 | Coimbatore | 70 | 70.00 | 47.00 | 33.00 | 51.92 | 2026-04-12 | 20:01:47 |
| 231 | Coimbatore | 70 | 70.00 | 47.00 | 33.00 | 51.92 | 2026-04-12 | 20:01:47 |
| 230 | Coimbatore | 70 | 70.00 | 47.00 | 33.00 | 51.92 | 2026-04-12 | 20:01:47 |
| 229 | Chennai | 28 | 14.00 | 28.00 | 28.33 | 82.65 | 2026-04-12 | 20:01:46 |
| 228 | Chennai | 28 | 14.00 | 28.00 | 28.33 | 82.65 | 2026-04-12 | 20:01:46 |
| 227 | Chennai | 28 | 14.00 | 28.00 | 28.33 | 82.65 | 2026-04-12 | 20:01:46 |
| 226 | Bengaluru | 153 | 153.00 | 83.00 | 32.40 | 33.67 | 2026-04-12 | 20:01:46 |
| 225 | Bengaluru | 153 | 153.00 | 83.00 | 32.40 | 33.67 | 2026-04-12 | 20:01:46 |
| 224 | Bengaluru | 153 | 153.00 | 83.00 | 32.40 | 33.67 | 2026-04-12 | 20:01:46 |
| 223 | Chennai | 28 | 14.00 | 28.00 | 28.33 | 82.65 | 2026-04-12 | 19:59:39 |
| 222 | Chennai | 51 | 51.00 | 46.00 | 28.34 | 74.99 | 2026-04-12 | 11:36:24 |
| 221 | Salem | 27 | 27.00 | 6.10 | 91.50 | 2026-04-04 | 15:46:48 | |
| 220 | Dindigul | 29 | 29.00 | 37.50 | 42.00 | 2026-04-04 | 15:46:45 | |
| 219 | Salem | 27 | 27.00 | 6.10 | 91.50 | 2026-04-04 | 15:46:45 | |
| 218 | delhi | 69 | 66.00 | 69.00 | 27.70 | 41.88 | 2026-04-04 | 15:46:45 |
| 217 | Coimbatore | 79 | 79.00 | 37.00 | 33.00 | 47.03 | 2026-04-04 | 15:46:44 |
| 216 | Chennai | 55 | 55.00 | 46.00 | 28.51 | 73.72 | 2026-04-04 | 15:46:44 |
| 215 | Bengaluru | 133 | 133.00 | 67.00 | 31.30 | 35.00 | 2026-04-04 | 15:46:43 |
| 214 | Dindigul | 29 | 29.00 | 37.50 | 42.00 | 2026-04-04 | 15:46:42 | |
| 213 | delhi | 69 | 66.00 | 69.00 | 27.70 | 41.88 | 2026-04-04 | 15:46:41 |
| 212 | Coimbatore | 79 | 79.00 | 37.00 | 33.00 | 47.03 | 2026-04-04 | 15:46:40 |
| 211 | Chennai | 55 | 55.00 | 46.00 | 28.51 | 73.72 | 2026-04-04 | 15:46:40 |
| 210 | Bengaluru | 133 | 133.00 | 67.00 | 31.30 | 35.00 | 2026-04-04 | 15:46:39 |
| 209 | Bengaluru | 133 | 133.00 | 67.00 | 31.30 | 35.00 | 2026-04-04 | 15:42:47 |
| 208 | Bengaluru | 133 | 133.00 | 67.00 | 31.30 | 35.00 | 2026-04-04 | 15:42:46 |
| 207 | Bengaluru | 133 | 133.00 | 67.00 | 31.30 | 35.00 | 2026-04-04 | 15:42:45 |
| 206 | Bengaluru | 133 | 133.00 | 67.00 | 31.30 | 35.00 | 2026-04-04 | 15:42:44 |
| 205 | Bengaluru | 133 | 133.00 | 67.00 | 31.30 | 35.00 | 2026-04-04 | 15:40:01 |
| 204 | Bengaluru | 133 | 133.00 | 67.00 | 31.30 | 35.00 | 2026-04-04 | 15:39:57 |
| 203 | Bengaluru | 133 | 133.00 | 67.00 | 31.30 | 35.00 | 2026-04-04 | 15:39:56 |
| 202 | Bengaluru | 133 | 133.00 | 67.00 | 31.30 | 35.00 | 2026-04-04 | 15:39:54 |
| 201 | Bengaluru | 133 | 133.00 | 67.00 | 31.30 | 35.00 | 2026-04-04 | 15:35:50 |
| 200 | Salem | 31 | 31.00 | 7.90 | 86.20 | 2026-04-04 | 15:25:17 | |
| 199 | Dindigul | 29 | 29.00 | 37.50 | 42.00 | 2026-04-04 | 15:25:14 | |
| 198 | delhi | 69 | 66.00 | 69.00 | 27.70 | 41.77 | 2026-04-04 | 15:25:14 |
| 197 | Coimbatore | 79 | 79.00 | 37.00 | 33.00 | 47.03 | 2026-04-04 | 15:25:13 |
| 196 | Chennai | 55 | 55.00 | 46.00 | 28.51 | 73.72 | 2026-04-04 | 15:25:13 |
| 195 | Bengaluru | 133 | 133.00 | 67.00 | 31.30 | 35.00 | 2026-04-04 | 15:25:12 |
| 194 | Salem | 31 | 31.00 | 7.90 | 86.20 | 2026-04-04 | 15:25:11 | |
| 193 | Dindigul | 29 | 29.00 | 37.50 | 42.00 | 2026-04-04 | 15:25:08 | |
| 192 | delhi | 69 | 66.00 | 69.00 | 27.70 | 41.77 | 2026-04-04 | 15:25:07 |
| 191 | Coimbatore | 79 | 79.00 | 37.00 | 33.00 | 47.03 | 2026-04-04 | 15:25:07 |
| 190 | Chennai | 55 | 55.00 | 46.00 | 28.51 | 73.72 | 2026-04-04 | 15:25:06 |
| 189 | Bengaluru | 133 | 133.00 | 67.00 | 31.30 | 35.00 | 2026-04-04 | 15:25:06 |
| 188 | delhi | 69 | 66.00 | 69.00 | 28.45 | 41.00 | 2026-04-04 | 15:19:48 |
| 187 | Bengaluru | 127 | 127.00 | 71.00 | 31.00 | 36.50 | 2026-04-04 | 15:05:07 |
| 186 | Bengaluru | 127 | 127.00 | 71.00 | 31.00 | 36.50 | 2026-04-04 | 15:05:07 |
| 185 | Coimbatore | 79 | 79.00 | 36.00 | 34.50 | 44.40 | 2026-04-04 | 14:42:20 |
| 184 | Chennai | 90 | 90.00 | 51.00 | 26.38 | 73.83 | 2026-04-04 | 14:42:00 |
| 183 | Bengaluru | 127 | 127.00 | 71.00 | 30.05 | 39.50 | 2026-04-04 | 14:41:29 |
| 182 | Chennai | 90 | 90.00 | 51.00 | 26.38 | 73.83 | 2026-04-04 | 14:40:46 |
| 181 | Salem | 41 | 41.00 | 7.70 | 86.20 | 2026-04-04 | 14:28:07 | |
| 180 | Dindigul | 27 | 27.00 | 37.50 | 40.50 | 2026-04-04 | 14:28:04 | |
| 179 | delhi | 74 | 73.00 | 74.00 | 28.50 | 40.43 | 2026-04-04 | 14:28:04 |
| 178 | Coimbatore | 81 | 81.00 | 36.00 | 34.50 | 45.11 | 2026-04-04 | 14:28:03 |
| 177 | Chennai | 90 | 90.00 | 51.00 | 26.29 | 74.87 | 2026-04-04 | 14:28:03 |
| 176 | Bengaluru | 127 | 127.00 | 71.00 | 30.05 | 39.50 | 2026-04-04 | 14:28:02 |
| 175 | Chennai | 90 | 90.00 | 51.00 | 26.29 | 74.87 | 2026-04-04 | 14:27:30 |
| 174 | Chennai | 90 | 90.00 | 51.00 | 26.29 | 74.87 | 2026-04-04 | 14:27:08 |
| 173 | Bengaluru | 119 | 119.00 | 68.00 | 29.70 | 41.00 | 2026-04-04 | 13:56:14 |
| 172 | Bengaluru | 119 | 119.00 | 68.00 | 29.70 | 41.00 | 2026-04-04 | 13:56:14 |
| 171 | Salem | 36 | 36.00 | 7.60 | 85.70 | 2026-04-04 | 13:19:27 | |
| 170 | Dindigul | 22 | 22.00 | 36.00 | 44.00 | 2026-04-04 | 13:19:25 | |
| 169 | delhi | 85 | 85.00 | 71.00 | 28.40 | 41.50 | 2026-04-04 | 13:19:24 |
| 168 | Coimbatore | 77 | 77.00 | 31.00 | 33.00 | 49.06 | 2026-04-04 | 13:19:24 |
| 167 | Chennai | 65 | 65.00 | 38.00 | 26.18 | 74.95 | 2026-04-04 | 13:19:23 |
| 166 | Bengaluru | 108 | 108.00 | 64.00 | 28.50 | 42.00 | 2026-04-04 | 13:19:22 |
| 165 | Salem | 35 | 35.00 | 7.70 | 84.00 | 2026-04-04 | 13:06:19 | |
| 164 | Dindigul | 26 | 26.00 | 36.00 | 44.00 | 2026-04-04 | 13:06:16 | |
| 163 | delhi | 106 | 106.00 | 84.00 | 27.70 | 42.75 | 2026-04-04 | 13:06:16 |
| 162 | Coimbatore | 72 | 72.00 | 28.00 | 32.00 | 49.82 | 2026-04-04 | 13:06:15 |
| 161 | Salem | 35 | 35.00 | 7.70 | 84.00 | 2026-04-04 | 13:06:15 | |
| 160 | Chennai | 56 | 56.00 | 53.00 | 26.17 | 74.90 | 2026-04-04 | 13:06:15 |
| 159 | Bengaluru | 108 | 108.00 | 64.00 | 28.50 | 42.00 | 2026-04-04 | 13:06:14 |
| 158 | Dindigul | 26 | 26.00 | 36.00 | 44.00 | 2026-04-04 | 13:06:12 |